Forside
METAR-TAF:

METAR-TAF

Lufthavne :

Kokshetau, Kasakhstan

Breddekreds: 53-19-48N, længdekreds: 069-35-48E, højde: 270 m

Aktuelle vejr

Denne rapport blev lavet for 15 timer og 6 minutter siden, kl. 11:30 UTC
Vind 2 kt fra vestsydvest
Temperatur -3°C
Fugtighed 74%
Tryk 1037 hPa
Sigt 10 km eller mere
Overskyet i en højde af 3000 ft

METAR: UACK 161130Z 24001MPS 9999 OVC030 M03/M07 Q1037 R20/920160 NOSIG RMK QFE754/1005

Tid: 08:36 (02:36 UTC)

Vejrudsigter

Denne rapport blev lavet for 18 timer og 36 minutter siden, kl. 08:00 UTC
Foreløbig gælder fra 16 på 09 UTC til 16 på 18 UTC
Vind 10 kt fra vest
Sigt 10 km eller mere
Brudte skyer i en højde af 3300 ft
Brudte skyer i en højde af 10000 ft
Midlertidig
fra 16 på 09 UTC til 16 på 18 UTC
Vind 4 kt fra varierende retninger
Sigt: 4000 m
Spredte skyer i en højde af 600 ft
Brudte skyer i en højde af 1500 ft, Cumulonimbus.
let snebyger, dis

TAF: UACK 160800Z 1609/1618 26005MPS 9999 BKN033 BKN100 TEMPO 1609/1618 VRB02MPS 4000 -SHSN BR SCT006 BKN015CB

Vejrobservationer og prognoser fra mere end 4000 lufthavne (METAR og TAF).

De gule og røde prikker repræsenterer de meteorologiske stationer.

Flyt musen over at se navnet på stationen.

Så klik over at se vejr observationer og prognoser.

At skifte det kort: Klik på de grønne knapper med et sort kors for at zoome ind; på den grønne knap med en bindestreg for at zoome ud; eller på de grønne pile for tilstødende kort.


METAR-TAF: